createdAt,value
2022-09-21T00:01:11.096Z,62.01
2022-09-21T00:02:13.472Z,61.47
2022-09-21T00:03:16.003Z,60.81
2022-09-21T00:04:17.653Z,60.38
2022-09-21T00:05:19.285Z,59.85
2022-09-21T00:06:23.214Z,59.40
2022-09-21T00:07:24.934Z,58.71
2022-09-21T00:08:26.824Z,58.12
2022-09-21T00:09:28.433Z,58.49
2022-09-21T00:10:30.288Z,59.21
2022-09-21T00:11:33.941Z,60.60
2022-09-21T00:12:38.532Z,61.96
2022-09-21T00:13:40.638Z,63.00
2022-09-21T00:14:43.259Z,64.45
2022-09-21T00:15:44.841Z,65.95
2022-09-21T00:16:46.511Z,66.14
2022-09-21T00:17:48.249Z,65.66
2022-09-21T00:18:50.279Z,64.64
2022-09-21T00:19:52.437Z,63.80
2022-09-21T00:20:54.126Z,62.86
2022-09-21T00:21:56.583Z,62.33
2022-09-21T00:22:58.385Z,61.75
2022-09-21T00:24:00.662Z,61.09
2022-09-21T00:25:03.499Z,60.73
2022-09-21T00:26:06.226Z,60.52
2022-09-21T00:27:07.850Z,60.09
2022-09-21T00:28:09.636Z,59.67
2022-09-21T00:29:11.286Z,59.22
2022-09-21T00:30:13.026Z,58.57
2022-09-21T00:31:18.837Z,58.64
2022-09-21T00:32:20.487Z,59.53
2022-09-21T00:33:22.069Z,60.77
2022-09-21T00:34:24.777Z,62.25
2022-09-21T00:35:26.405Z,63.93
2022-09-21T00:36:28.653Z,65.21
2022-09-21T00:37:30.933Z,65.65
2022-09-21T00:38:33.560Z,65.11
2022-09-21T00:39:35.414Z,64.19
2022-09-21T00:40:37.045Z,63.36
2022-09-21T00:41:38.684Z,62.63
2022-09-21T00:42:40.401Z,61.87
2022-09-21T00:44:07.770Z,61.29
2022-09-21T00:45:21.387Z,60.55
2022-09-21T00:46:30.897Z,60.01
2022-09-21T00:47:43.092Z,59.99
2022-09-21T00:48:46.917Z,59.65
2022-09-21T00:49:54.400Z,59.55
2022-09-21T00:51:03.877Z,59.41
2022-09-21T00:52:08.400Z,58.65
2022-09-21T00:53:10.449Z,58.34
2022-09-21T00:54:23.245Z,59.03
2022-09-21T00:55:34.409Z,60.14
2022-09-21T00:56:37.364Z,61.02
2022-09-21T00:57:39.615Z,62.52
2022-09-21T00:58:47.934Z,64.62
2022-09-21T00:59:54.528Z,65.85
2022-09-21T01:00:59.965Z,65.86
2022-09-21T01:02:01.635Z,65.08
2022-09-21T01:03:05.378Z,64.21
2022-09-21T01:04:08.741Z,63.24
2022-09-21T01:05:10.736Z,62.38
2022-09-21T01:06:19.979Z,61.69
2022-09-21T01:07:29.348Z,61.00
2022-09-21T01:08:31.493Z,60.50
2022-09-21T01:09:34.728Z,60.16
2022-09-21T01:11:16.421Z,59.69
2022-09-21T01:12:41.242Z,58.59
2022-09-21T01:14:19.915Z,57.99
2022-09-21T01:15:37.849Z,59.26
2022-09-21T01:16:53.228Z,61.19
2022-09-21T01:18:05.954Z,63.32
2022-09-21T01:19:34.736Z,65.04
2022-09-21T01:21:01.185Z,65.15
2022-09-21T01:22:44.014Z,64.01
2022-09-21T01:24:11.529Z,62.92
2022-09-21T01:25:34.699Z,61.76
2022-09-21T01:26:48.490Z,61.20
2022-09-21T01:28:07.849Z,60.71
2022-09-21T01:29:28.000Z,60.19
2022-09-21T01:30:34.149Z,59.69
2022-09-21T01:31:54.143Z,59.45
2022-09-21T01:33:26.353Z,59.33
2022-09-21T01:34:48.901Z,58.06
2022-09-21T01:35:58.027Z,58.72
2022-09-21T01:37:11.787Z,60.01
2022-09-21T01:38:50.029Z,61.54
2022-09-21T01:39:59.726Z,64.47
2022-09-21T01:41:08.330Z,65.33
2022-09-21T01:42:13.502Z,65.11
2022-09-21T01:43:25.332Z,64.59
2022-09-21T01:44:34.554Z,63.75
2022-09-21T01:45:43.337Z,62.99
2022-09-21T01:46:47.535Z,62.33
2022-09-21T01:47:51.288Z,61.80
2022-09-21T01:49:06.814Z,61.45
2022-09-21T01:50:12.196Z,61.05
2022-09-21T01:51:19.679Z,60.68
2022-09-21T01:52:33.124Z,60.68
2022-09-21T01:53:41.986Z,60.56
2022-09-21T01:54:52.582Z,60.30
2022-09-21T01:56:05.116Z,60.07
2022-09-21T01:57:15.346Z,59.64
2022-09-21T01:58:33.093Z,59.47
2022-09-21T01:59:49.175Z,59.09
2022-09-21T02:00:56.572Z,58.60
2022-09-21T02:02:12.838Z,59.14
2022-09-21T02:03:28.330Z,60.42
2022-09-21T02:04:30.788Z,61.41
2022-09-21T02:05:33.855Z,63.50
2022-09-21T02:06:41.308Z,65.21
2022-09-21T02:07:43.748Z,66.05
2022-09-21T02:08:46.661Z,65.74
2022-09-21T02:09:48.709Z,64.89
2022-09-21T02:10:53.132Z,64.08
2022-09-21T02:11:54.835Z,63.34
2022-09-21T02:13:01.614Z,62.48
2022-09-21T02:14:03.294Z,61.81
2022-09-21T02:15:05.781Z,61.52
2022-09-21T02:16:07.372Z,60.95
2022-09-21T02:17:23.646Z,60.57
2022-09-21T02:18:47.002Z,60.23
2022-09-21T02:20:10.953Z,59.83
2022-09-21T02:21:48.368Z,59.44
2022-09-21T02:23:26.492Z,58.43
2022-09-21T02:24:48.009Z,58.84
2022-09-21T02:25:57.565Z,60.34
2022-09-21T02:27:10.847Z,62.20
2022-09-21T02:29:01.373Z,63.76
2022-09-21T02:30:22.145Z,65.44
2022-09-21T02:31:53.558Z,64.71
2022-09-21T02:33:36.793Z,63.46
2022-09-21T02:34:46.795Z,62.28
2022-09-21T02:36:16.716Z,61.67
2022-09-21T02:37:47.233Z,60.94
2022-09-21T02:39:05.152Z,60.28
2022-09-21T02:40:22.928Z,59.83
2022-09-21T02:41:37.894Z,59.65
2022-09-21T02:42:46.355Z,59.47
2022-09-21T02:43:52.675Z,58.80
2022-09-21T02:45:08.189Z,58.25
2022-09-21T02:46:30.958Z,59.03
2022-09-21T02:47:42.805Z,60.46
2022-09-21T02:48:51.462Z,61.92
2022-09-21T02:50:03.359Z,63.47
2022-09-21T02:51:16.651Z,65.82
2022-09-21T02:52:21.833Z,66.06
2022-09-21T02:53:29.528Z,65.34
2022-09-21T02:54:34.163Z,64.56
2022-09-21T02:55:36.643Z,64.00
2022-09-21T02:56:41.450Z,63.21
2022-09-21T02:57:47.485Z,62.52
2022-09-21T02:58:55.006Z,61.90
2022-09-21T02:59:56.966Z,61.38
2022-09-21T03:01:00.161Z,61.01
2022-09-21T03:02:02.122Z,60.74
2022-09-21T03:03:22.082Z,60.41
2022-09-21T03:04:24.963Z,60.07
2022-09-21T03:05:28.553Z,59.89
2022-09-21T03:06:31.388Z,59.61
2022-09-21T03:07:33.048Z,59.25
2022-09-21T03:08:34.709Z,58.68
2022-09-21T03:09:36.357Z,58.84
2022-09-21T03:10:39.722Z,59.25
2022-09-21T03:11:43.157Z,60.81
2022-09-21T03:12:46.039Z,61.88
2022-09-21T03:13:47.634Z,64.15
2022-09-21T03:14:51.260Z,65.01
2022-09-21T03:16:01.069Z,65.76
2022-09-21T03:17:03.037Z,65.20
2022-09-21T03:18:06.706Z,64.33
2022-09-21T03:19:09.013Z,63.35
2022-09-21T03:20:10.726Z,62.56
2022-09-21T03:21:13.317Z,61.93
2022-09-21T03:22:14.947Z,61.42
2022-09-21T03:23:16.577Z,60.87
2022-09-21T03:24:38.193Z,60.33
2022-09-21T03:25:43.613Z,59.95
2022-09-21T03:26:45.256Z,59.74
2022-09-21T03:27:46.890Z,59.23
2022-09-21T03:28:54.814Z,58.39
2022-09-21T03:30:01.299Z,58.45
2022-09-21T03:31:03.971Z,59.42
2022-09-21T03:32:06.154Z,60.74
2022-09-21T03:33:08.335Z,61.54
2022-09-21T03:34:11.372Z,63.62
2022-09-21T03:35:13.042Z,65.04
2022-09-21T03:36:14.889Z,65.47
2022-09-21T03:37:17.082Z,64.98
2022-09-21T03:38:21.546Z,64.14
2022-09-21T03:39:23.198Z,63.18
2022-09-21T03:40:26.560Z,62.37
2022-09-21T03:41:28.479Z,61.46
2022-09-21T03:42:30.102Z,61.54
2022-09-21T03:43:32.403Z,61.22
2022-09-21T03:44:34.226Z,60.84
2022-09-21T03:45:35.828Z,60.57
2022-09-21T03:46:37.528Z,60.29
2022-09-21T03:47:40.434Z,60.22
2022-09-21T03:48:42.483Z,59.97
2022-09-21T03:49:44.137Z,60.12
2022-09-21T03:50:45.794Z,59.80
2022-09-21T03:51:47.757Z,59.60
2022-09-21T03:52:49.465Z,59.24
2022-09-21T03:53:51.474Z,58.51
2022-09-21T03:54:53.120Z,58.38
2022-09-21T03:55:54.732Z,59.20
2022-09-21T03:56:56.418Z,60.88
2022-09-21T03:57:58.098Z,61.64
2022-09-21T03:58:59.788Z,63.45
2022-09-21T04:00:04.021Z,64.73
2022-09-21T04:01:06.007Z,65.61
2022-09-21T04:02:08.435Z,65.41
2022-09-21T04:03:10.117Z,64.66
2022-09-21T04:04:11.796Z,63.66
2022-09-21T04:05:15.707Z,63.04
2022-09-21T04:06:18.145Z,62.37
2022-09-21T04:07:19.886Z,61.85
2022-09-21T04:08:21.527Z,61.33
2022-09-21T04:09:23.468Z,61.04
2022-09-21T04:10:29.290Z,60.85
2022-09-21T04:11:32.461Z,60.49
2022-09-21T04:12:34.918Z,60.26
2022-09-21T04:13:36.592Z,59.95
2022-09-21T04:14:38.364Z,59.90
2022-09-21T04:15:40.105Z,59.77
2022-09-21T04:16:41.828Z,59.47
2022-09-21T04:17:43.590Z,59.07
2022-09-21T04:18:45.261Z,58.81
2022-09-21T04:19:47.815Z,59.30
2022-09-21T04:20:49.401Z,60.42
2022-09-21T04:21:55.949Z,61.71
2022-09-21T04:22:57.908Z,63.38
2022-09-21T04:24:00.235Z,64.75
2022-09-21T04:25:02.774Z,66.10
2022-09-21T04:26:04.557Z,65.80
2022-09-21T04:27:06.890Z,65.18
2022-09-21T04:28:08.871Z,64.39
2022-09-21T04:29:11.971Z,63.75
2022-09-21T04:30:15.929Z,63.19
2022-09-21T04:31:17.779Z,62.96
2022-09-21T04:32:19.410Z,62.46
2022-09-21T04:33:22.186Z,62.09
2022-09-21T04:34:23.943Z,61.68
2022-09-21T04:35:25.541Z,61.35
2022-09-21T04:36:33.152Z,61.06
2022-09-21T04:37:37.565Z,60.78
2022-09-21T04:38:40.519Z,60.63
2022-09-21T04:39:42.170Z,60.52
2022-09-21T04:40:43.781Z,60.24
2022-09-21T04:41:45.910Z,60.04
2022-09-21T04:42:53.829Z,59.83
2022-09-21T04:43:55.506Z,59.61
2022-09-21T04:44:57.118Z,59.54
2022-09-21T04:45:58.854Z,59.44
2022-09-21T04:47:00.618Z,59.02
2022-09-21T04:48:02.469Z,58.35
2022-09-21T04:49:04.633Z,58.67
2022-09-21T04:50:06.979Z,59.56
2022-09-21T04:51:10.367Z,61.45
2022-09-21T04:52:14.739Z,62.66
2022-09-21T04:53:20.005Z,64.80
2022-09-21T04:54:21.622Z,65.98
2022-09-21T04:55:23.225Z,65.78
2022-09-21T04:56:24.839Z,65.25
2022-09-21T04:57:26.503Z,64.65
2022-09-21T04:58:28.237Z,63.92
2022-09-21T04:59:29.933Z,63.35
2022-09-21T05:00:32.009Z,62.88
2022-09-21T05:01:33.892Z,62.43
2022-09-21T05:02:35.527Z,61.97
2022-09-21T05:03:38.343Z,61.55
2022-09-21T05:04:40.042Z,61.19
2022-09-21T05:05:50.585Z,60.87
2022-09-21T05:06:52.184Z,60.65
2022-09-21T05:07:54.239Z,60.28
2022-09-21T05:09:15.219Z,60.00
2022-09-21T05:10:16.917Z,59.91
2022-09-21T05:11:19.636Z,59.73
2022-09-21T05:12:21.258Z,59.58
2022-09-21T05:13:22.880Z,59.17
2022-09-21T05:14:24.516Z,58.47
2022-09-21T05:15:26.157Z,58.56
2022-09-21T05:16:27.801Z,59.76
2022-09-21T05:17:29.742Z,61.19
2022-09-21T05:18:31.546Z,62.09
2022-09-21T05:19:33.200Z,63.97
2022-09-21T05:20:35.018Z,65.53
2022-09-21T05:21:37.145Z,66.04
2022-09-21T05:22:38.833Z,65.84
2022-09-21T05:23:40.745Z,64.87
2022-09-21T05:24:42.441Z,64.13
2022-09-21T05:25:44.051Z,63.43
2022-09-21T05:26:45.823Z,62.71
2022-09-21T05:27:47.582Z,62.28
2022-09-21T05:28:49.834Z,61.98
2022-09-21T05:29:51.905Z,61.77
2022-09-21T05:31:18.772Z,61.66
2022-09-21T05:32:45.351Z,61.12
2022-09-21T05:33:52.677Z,60.96
2022-09-21T05:35:02.249Z,60.75
2022-09-21T05:36:34.507Z,60.44
2022-09-21T05:38:12.679Z,60.07
2022-09-21T05:39:14.595Z,60.12
2022-09-21T05:40:16.606Z,60.19
2022-09-21T05:41:18.512Z,59.99
2022-09-21T05:42:20.307Z,60.03
2022-09-21T05:43:22.319Z,60.06
2022-09-21T05:44:24.340Z,59.97
2022-09-21T05:45:28.749Z,60.26
2022-09-21T05:46:51.676Z,60.46
2022-09-21T05:48:00.141Z,60.15
2022-09-21T05:49:22.786Z,59.96
2022-09-21T05:51:03.096Z,59.95
2022-09-21T05:52:25.593Z,59.76
2022-09-21T05:53:30.093Z,59.86
2022-09-21T05:54:48.794Z,59.80
2022-09-21T05:55:56.686Z,59.59
2022-09-21T05:57:27.416Z,59.51
2022-09-21T05:58:55.354Z,59.25
2022-09-21T06:00:12.295Z,58.79
2022-09-21T06:02:05.218Z,59.56
2022-09-21T06:03:32.330Z,61.46
2022-09-21T06:04:34.395Z,63.25
2022-09-21T06:05:36.243Z,65.06
2022-09-21T06:06:38.899Z,65.68
2022-09-21T06:07:41.605Z,65.23
2022-09-21T06:08:43.201Z,64.43
2022-09-21T06:09:45.170Z,63.67
2022-09-21T06:10:46.845Z,62.85
2022-09-21T06:11:48.690Z,62.26
2022-09-21T06:12:50.346Z,61.87
2022-09-21T06:13:51.982Z,61.39
2022-09-21T06:14:53.920Z,61.01
2022-09-21T06:15:55.561Z,60.76
2022-09-21T06:16:57.198Z,60.61
2022-09-21T06:17:59.406Z,60.29
2022-09-21T06:19:00.997Z,60.04
2022-09-21T06:20:03.482Z,59.77
2022-09-21T06:21:05.459Z,59.61
2022-09-21T06:22:07.121Z,59.37
2022-09-21T06:23:11.723Z,58.59
2022-09-21T06:24:13.319Z,58.40
2022-09-21T06:25:15.201Z,59.43
2022-09-21T06:26:17.674Z,60.57
2022-09-21T06:27:19.450Z,61.45
2022-09-21T06:28:21.190Z,62.38
2022-09-21T06:29:23.713Z,64.70
2022-09-21T06:30:25.482Z,65.97
2022-09-21T06:31:28.007Z,65.78
2022-09-21T06:32:29.794Z,65.41
2022-09-21T06:33:31.406Z,64.88
2022-09-21T06:34:33.014Z,64.00
2022-09-21T06:35:36.599Z,63.28
2022-09-21T06:36:38.207Z,62.65
2022-09-21T06:37:42.054Z,62.09
2022-09-21T06:38:43.838Z,61.64
2022-09-21T06:39:45.634Z,61.40
2022-09-21T06:40:47.301Z,60.99
2022-09-21T06:41:48.933Z,60.59
2022-09-21T06:42:56.120Z,60.34
2022-09-21T06:43:57.756Z,60.06
2022-09-21T06:44:59.445Z,59.82
2022-09-21T06:46:03.114Z,59.61
2022-09-21T06:47:05.016Z,59.55
2022-09-21T06:48:06.837Z,59.43
2022-09-21T06:49:08.434Z,58.83
2022-09-21T06:50:10.045Z,58.25
2022-09-21T06:51:11.638Z,58.73
2022-09-21T06:52:13.254Z,59.65
2022-09-21T06:53:16.338Z,60.88
2022-09-21T06:54:18.385Z,62.95
2022-09-21T06:55:20.235Z,64.56
2022-09-21T06:56:22.094Z,65.56
2022-09-21T06:57:24.022Z,65.35
2022-09-21T06:58:25.644Z,64.67
2022-09-21T06:59:27.262Z,63.60
2022-09-21T07:00:29.795Z,63.07
2022-09-21T07:01:31.468Z,62.48
2022-09-21T07:02:33.465Z,61.81
2022-09-21T07:03:35.993Z,61.28
2022-09-21T07:04:37.598Z,60.74
2022-09-21T07:05:40.028Z,60.33
2022-09-21T07:06:41.657Z,60.18
2022-09-21T07:07:43.286Z,60.13
2022-09-21T07:10:14.592Z,59.28
2022-09-21T07:11:19.725Z,59.26
2022-09-21T07:12:21.960Z,60.46
2022-09-21T07:13:23.764Z,61.61
2022-09-21T07:14:25.486Z,63.86
2022-09-21T07:15:29.024Z,65.05
2022-09-21T07:16:31.053Z,65.35
2022-09-21T07:17:35.085Z,64.88
2022-09-21T07:18:43.629Z,64.43
2022-09-21T07:19:46.034Z,63.66
2022-09-21T07:20:51.778Z,62.99
2022-09-21T07:21:54.345Z,62.23
2022-09-21T07:22:55.999Z,61.87
2022-09-21T07:24:01.195Z,61.29
2022-09-21T07:25:06.735Z,60.89
2022-09-21T07:26:11.804Z,60.58
2022-09-21T07:27:13.433Z,60.20
2022-09-21T07:28:15.254Z,59.85
2022-09-21T07:29:16.855Z,59.80
2022-09-21T07:30:18.593Z,59.70
2022-09-21T07:31:20.241Z,59.22
2022-09-21T07:32:21.939Z,58.92
2022-09-21T07:33:24.520Z,58.99
2022-09-21T07:34:26.390Z,60.05
2022-09-21T07:35:28.018Z,60.69
2022-09-21T07:36:29.746Z,61.82
2022-09-21T07:37:31.802Z,62.53
2022-09-21T07:38:35.554Z,64.54
2022-09-21T07:39:39.110Z,65.78
2022-09-21T07:40:40.872Z,65.30
2022-09-21T07:41:42.506Z,64.73
2022-09-21T07:42:44.828Z,64.04
2022-09-21T07:43:47.170Z,63.36
2022-09-21T07:44:49.263Z,62.76
2022-09-21T07:45:58.008Z,62.00
2022-09-21T07:47:01.261Z,61.35
2022-09-21T07:48:04.740Z,60.99
2022-09-21T07:49:06.531Z,60.54
2022-09-21T07:50:08.887Z,60.34
2022-09-21T07:51:14.190Z,60.21
2022-09-21T07:52:15.906Z,59.86
2022-09-21T07:53:17.636Z,59.58
2022-09-21T07:54:19.233Z,59.09
2022-09-21T07:55:21.086Z,58.09
2022-09-21T07:56:23.545Z,57.79
2022-09-21T07:57:43.447Z,58.79
2022-09-21T07:59:03.397Z,59.92
2022-09-21T08:00:05.690Z,61.26
2022-09-21T08:01:13.481Z,62.90
2022-09-21T08:02:15.238Z,63.94
2022-09-21T08:03:17.015Z,64.47
2022-09-21T08:04:18.822Z,63.73
2022-09-21T08:05:20.480Z,62.73
2022-09-21T08:06:24.638Z,61.89
2022-09-21T08:07:28.370Z,61.02
2022-09-21T08:08:30.397Z,60.50
2022-09-21T08:09:32.018Z,59.76
2022-09-21T08:10:35.386Z,59.55
2022-09-21T08:11:37.699Z,58.81
2022-09-21T08:12:40.068Z,58.00
2022-09-21T08:13:41.775Z,58.25
2022-09-21T08:14:43.548Z,59.29
2022-09-21T08:15:49.800Z,60.03
2022-09-21T08:16:51.964Z,61.30
2022-09-21T08:17:54.574Z,62.23
2022-09-21T08:18:56.637Z,63.69
2022-09-21T08:19:58.618Z,64.91
2022-09-21T08:21:00.974Z,65.40
2022-09-21T08:22:02.777Z,64.97
2022-09-21T08:24:58.311Z,62.15
2022-09-21T08:26:13.528Z,61.10
2022-09-21T08:27:25.219Z,60.73
2022-09-21T08:28:59.789Z,59.87
2022-09-21T08:30:27.732Z,59.56
2022-09-21T08:31:40.103Z,58.45
2022-09-21T08:32:51.717Z,57.85
2022-09-21T08:33:57.793Z,58.45
2022-09-21T08:34:59.675Z,59.58
2022-09-21T08:36:02.216Z,60.76
2022-09-21T08:37:03.996Z,61.70
2022-09-21T08:38:06.046Z,62.29
2022-09-21T08:39:09.193Z,63.61
2022-09-21T08:40:12.439Z,64.86
2022-09-21T08:41:20.297Z,64.56
2022-09-21T08:42:37.289Z,63.81
2022-09-21T08:43:45.663Z,61.94
2022-09-21T08:45:00.472Z,60.83
2022-09-21T08:46:13.210Z,59.87
2022-09-21T08:47:28.718Z,59.23
2022-09-21T08:48:37.946Z,57.81
2022-09-21T08:49:46.306Z,57.44
2022-09-21T08:50:54.774Z,57.97
2022-09-21T08:52:14.463Z,59.51
2022-09-21T08:53:34.470Z,60.36
2022-09-21T08:54:46.683Z,61.79
2022-09-21T08:55:48.415Z,63.18
2022-09-21T08:57:04.612Z,64.15
2022-09-21T08:58:28.518Z,64.42
2022-09-21T08:59:30.219Z,63.43
2022-09-21T09:00:39.945Z,61.78
2022-09-21T09:02:04.015Z,59.79
2022-09-21T09:03:24.256Z,58.65
2022-09-21T09:04:49.274Z,57.59
2022-09-21T09:06:07.624Z,57.95
2022-09-21T09:07:44.224Z,59.57
2022-09-21T09:09:01.862Z,60.13
2022-09-21T09:10:29.640Z,61.75
2022-09-21T09:11:54.568Z,63.41
2022-09-21T09:13:28.287Z,63.90
2022-09-21T09:14:53.758Z,62.99
2022-09-21T09:16:08.112Z,61.40
2022-09-21T09:17:35.740Z,60.27
2022-09-21T09:18:52.849Z,59.57
2022-09-21T09:20:05.536Z,58.13
2022-09-21T09:21:26.659Z,57.19
2022-09-21T09:22:44.793Z,57.60
2022-09-21T09:23:54.232Z,58.63
2022-09-21T09:25:03.038Z,59.63
2022-09-21T09:26:26.062Z,60.31
2022-09-21T09:27:34.914Z,61.38
2022-09-21T09:28:52.722Z,62.06
2022-09-21T09:30:04.055Z,62.72
2022-09-21T09:31:28.219Z,63.29
2022-09-21T09:32:48.683Z,63.50
2022-09-21T09:34:25.621Z,62.00
2022-09-21T09:35:45.642Z,60.08
2022-09-21T09:36:59.233Z,59.43
2022-09-21T09:38:21.506Z,58.01
2022-09-21T09:39:24.627Z,56.94
2022-09-21T09:41:08.932Z,57.00
2022-09-21T09:42:25.770Z,58.50
2022-09-21T09:43:43.315Z,59.87
2022-09-21T09:45:37.641Z,60.07
2022-09-21T09:47:16.651Z,60.94
2022-09-21T09:48:51.882Z,60.86
2022-09-21T09:50:04.675Z,61.09
2022-09-21T09:51:12.746Z,61.71
2022-09-21T09:52:16.714Z,62.32
2022-09-21T09:53:23.927Z,62.88
2022-09-21T09:54:28.254Z,63.96
2022-09-21T09:55:38.196Z,64.07
2022-09-21T09:56:39.877Z,62.44
2022-09-21T09:57:42.023Z,61.19
2022-09-21T09:59:09.061Z,60.67
2022-09-21T10:00:15.230Z,59.31
2022-09-21T10:01:36.624Z,57.44
2022-09-21T10:02:47.407Z,56.39
2022-09-21T10:04:09.002Z,57.34
2022-09-21T10:05:28.898Z,58.30
2022-09-21T10:06:32.951Z,59.18
2022-09-21T10:07:40.270Z,59.99
2022-09-21T10:08:48.502Z,60.72
2022-09-21T10:09:50.096Z,60.94
2022-09-21T10:10:51.773Z,61.70
2022-09-21T10:11:59.026Z,62.25
2022-09-21T10:13:16.033Z,63.48
2022-09-21T10:14:27.078Z,64.18
2022-09-21T10:15:29.701Z,63.37
2022-09-21T10:16:31.608Z,62.37
2022-09-21T10:17:33.395Z,61.28
2022-09-21T10:18:50.035Z,58.45
2022-09-21T10:20:08.108Z,56.82
2022-09-21T10:21:19.401Z,56.72
2022-09-21T10:22:22.639Z,57.51
2022-09-21T10:23:25.471Z,58.18
2022-09-21T10:24:33.448Z,59.15
2022-09-21T10:25:39.494Z,59.69
2022-09-21T10:26:49.829Z,60.35
2022-09-21T10:27:53.142Z,60.94
2022-09-21T10:28:57.324Z,61.88
2022-09-21T10:29:58.983Z,62.26
2022-09-21T10:31:21.448Z,63.21
2022-09-21T10:32:28.311Z,65.17
2022-09-21T10:33:30.626Z,64.99
2022-09-21T10:34:35.235Z,63.69
2022-09-21T10:35:50.410Z,62.14
2022-09-21T10:36:56.036Z,60.44
2022-09-21T10:38:22.010Z,58.75
2022-09-21T10:39:32.247Z,56.69
2022-09-21T10:40:38.612Z,56.24
2022-09-21T10:41:40.340Z,56.57
2022-09-21T10:42:43.698Z,57.05
2022-09-21T10:43:45.864Z,57.42
2022-09-21T10:44:52.014Z,58.28
2022-09-21T10:45:57.080Z,58.88
2022-09-21T10:47:16.918Z,59.31
2022-09-21T10:48:23.186Z,59.34
2022-09-21T10:49:28.900Z,59.68
2022-09-21T10:50:44.749Z,59.95
2022-09-21T10:51:50.578Z,60.38
2022-09-21T10:52:59.591Z,60.72
2022-09-21T10:54:01.619Z,61.34
2022-09-21T10:55:03.519Z,61.65
2022-09-21T10:56:17.393Z,62.17
2022-09-21T10:57:23.517Z,63.46
2022-09-21T10:58:25.904Z,64.51
2022-09-21T10:59:32.374Z,63.08
2022-09-21T11:00:44.985Z,60.53
2022-09-21T11:01:49.885Z,59.50
2022-09-21T11:02:52.215Z,58.01
2022-09-21T11:04:03.058Z,56.68
2022-09-21T11:05:04.714Z,56.49
2022-09-21T11:06:16.991Z,56.87
2022-09-21T11:07:26.132Z,57.55
2022-09-21T11:08:36.867Z,57.97
2022-09-21T11:09:57.566Z,59.42
2022-09-21T11:11:13.919Z,60.37
2022-09-21T11:12:25.326Z,60.73
2022-09-21T11:14:01.128Z,61.18
2022-09-21T11:15:30.744Z,61.68
2022-09-21T11:16:40.394Z,60.74
2022-09-21T11:17:59.330Z,60.69
2022-09-21T11:19:42.334Z,60.93
2022-09-21T11:20:43.854Z,61.45
2022-09-21T11:21:57.584Z,61.85
2022-09-21T11:23:36.318Z,62.15
2022-09-21T11:25:04.278Z,62.90
2022-09-21T11:28:07.138Z,60.90
2022-09-21T11:29:12.162Z,57.30
2022-09-21T11:30:17.294Z,55.63
2022-09-21T11:31:31.906Z,54.16
2022-09-21T11:32:51.750Z,54.44
2022-09-21T11:34:05.402Z,54.62
2022-09-21T11:35:26.906Z,55.32
2022-09-21T11:36:46.682Z,55.92
2022-09-21T11:38:04.841Z,56.79
2022-09-21T11:39:26.434Z,56.97
2022-09-21T11:40:46.476Z,57.57
2022-09-21T11:42:11.107Z,58.50
2022-09-21T11:43:25.694Z,59.09
2022-09-21T11:44:43.070Z,59.62
2022-09-21T11:46:01.366Z,60.52
2022-09-21T11:47:35.221Z,61.26
2022-09-21T11:49:15.261Z,62.23
2022-09-21T11:50:30.545Z,62.71
2022-09-21T11:51:59.357Z,61.64
2022-09-21T11:53:38.551Z,58.08
2022-09-21T11:54:58.776Z,54.99
2022-09-21T11:56:15.377Z,53.47
2022-09-21T11:57:33.851Z,54.13
2022-09-21T11:59:04.156Z,54.73
2022-09-21T12:00:16.199Z,54.21
2022-09-21T12:01:51.155Z,54.73
2022-09-21T12:02:52.873Z,54.40
2022-09-21T12:04:32.225Z,53.27
2022-09-21T12:05:36.706Z,53.79
2022-09-21T12:06:50.378Z,53.84
2022-09-21T12:08:37.396Z,54.26
2022-09-21T12:10:11.152Z,54.83
2022-09-21T12:11:50.359Z,55.06
2022-09-21T12:13:00.670Z,55.51
2022-09-21T12:14:17.427Z,55.41
2022-09-21T12:15:38.319Z,55.20
2022-09-21T12:17:09.441Z,55.01
2022-09-21T12:18:40.378Z,54.94
2022-09-21T12:20:03.737Z,54.37
2022-09-21T12:21:14.536Z,54.20
2022-09-21T12:22:30.647Z,54.63
2022-09-21T12:23:43.890Z,54.93
2022-09-21T12:25:02.653Z,55.21
2022-09-21T12:26:07.331Z,55.71
2022-09-21T12:27:28.177Z,56.12
2022-09-21T12:28:39.397Z,56.67
2022-09-21T12:29:50.124Z,57.48
2022-09-21T12:31:01.594Z,57.80
2022-09-21T12:32:29.104Z,57.52
2022-09-21T12:33:51.329Z,58.01
2022-09-21T12:35:02.750Z,58.65
2022-09-21T12:36:20.377Z,59.22
2022-09-21T12:37:31.598Z,59.23
2022-09-21T12:38:40.900Z,59.71
2022-09-21T12:40:15.215Z,60.09
2022-09-21T12:41:47.380Z,60.91
2022-09-21T12:43:01.805Z,61.96
2022-09-21T12:44:28.741Z,63.42
2022-09-21T12:45:38.447Z,65.05
2022-09-21T12:47:16.391Z,64.43
2022-09-21T12:48:26.570Z,62.62
2022-09-21T12:49:32.338Z,61.49
2022-09-21T12:50:45.561Z,59.94
2022-09-21T12:51:56.773Z,58.75
2022-09-21T12:52:59.617Z,57.51
2022-09-21T12:54:14.378Z,57.35
2022-09-21T12:55:25.783Z,57.96
2022-09-21T12:57:29.826Z,58.84
2022-09-21T12:58:57.708Z,61.71
2022-09-21T13:00:09.706Z,61.67
2022-09-21T13:01:32.429Z,62.37
2022-09-21T13:02:48.258Z,63.69
2022-09-21T13:04:12.661Z,63.13
2022-09-21T13:05:26.448Z,61.74
2022-09-21T13:06:57.349Z,61.58
2022-09-21T13:08:30.506Z,60.43
2022-09-21T13:09:32.754Z,58.10
2022-09-21T13:10:43.043Z,56.34
2022-09-21T13:11:59.826Z,56.18
2022-09-21T13:13:04.347Z,56.69
2022-09-21T13:14:06.224Z,57.52
2022-09-21T13:15:27.266Z,57.62
2022-09-21T13:16:36.569Z,57.23
2022-09-21T13:17:38.362Z,57.43
2022-09-21T13:18:41.760Z,58.09
2022-09-21T13:19:43.504Z,58.87
2022-09-21T13:20:46.236Z,59.46
2022-09-21T13:22:19.808Z,59.35
2022-09-21T13:23:33.965Z,59.57
2022-09-21T13:24:35.954Z,59.12
2022-09-21T13:25:38.341Z,58.69
2022-09-21T13:26:44.497Z,59.06
2022-09-21T13:28:04.478Z,58.93
2022-09-21T13:29:28.572Z,58.30
2022-09-21T13:30:33.025Z,57.50
2022-09-21T13:32:00.653Z,57.06
2022-09-21T13:33:05.193Z,56.74
2022-09-21T13:34:28.497Z,56.24
2022-09-21T13:35:48.776Z,56.19
2022-09-21T13:37:19.481Z,56.65
2022-09-21T13:38:54.583Z,54.78
2022-09-21T13:40:02.149Z,54.82
2022-09-21T13:42:49.877Z,54.50
2022-09-21T13:44:01.078Z,54.40
2022-09-21T13:45:14.796Z,53.19
2022-09-21T13:46:34.719Z,51.64
2022-09-21T13:47:41.854Z,50.34
2022-09-21T13:48:43.582Z,50.00
2022-09-21T13:49:52.622Z,49.91
2022-09-21T13:50:59.561Z,50.31
2022-09-21T13:52:26.644Z,49.20
2022-09-21T13:53:40.158Z,49.41
2022-09-21T13:54:44.482Z,48.72
2022-09-21T13:55:53.939Z,48.69
2022-09-21T13:57:09.172Z,48.16
2022-09-21T13:58:35.893Z,48.13
2022-09-21T13:59:40.682Z,48.41
2022-09-21T14:01:03.045Z,48.87
2022-09-21T14:02:32.656Z,49.25
2022-09-21T14:03:43.018Z,49.80
2022-09-21T14:04:50.703Z,49.89
2022-09-21T14:06:00.366Z,49.90
2022-09-21T14:07:07.708Z,49.73
2022-09-21T14:08:15.632Z,49.68
2022-09-21T14:09:25.984Z,49.27
2022-09-21T14:10:32.273Z,48.92
2022-09-21T14:11:36.538Z,48.43
2022-09-21T14:12:44.570Z,47.78
2022-09-21T14:14:03.319Z,48.32
2022-09-21T14:15:34.603Z,49.13
2022-09-21T14:16:53.586Z,49.09
2022-09-21T14:18:37.599Z,49.11
2022-09-21T14:19:39.126Z,49.09
2022-09-21T14:20:42.344Z,48.73
2022-09-21T14:22:07.434Z,48.45
2022-09-21T14:23:15.062Z,48.76
2022-09-21T14:24:34.048Z,48.24
2022-09-21T14:25:56.427Z,47.31
2022-09-21T14:27:19.102Z,47.94
2022-09-21T14:28:32.038Z,47.97
2022-09-21T14:29:56.370Z,48.44
2022-09-21T14:31:04.919Z,48.39
2022-09-21T14:32:16.528Z,48.77
2022-09-21T14:33:29.125Z,48.50
2022-09-21T14:34:36.934Z,49.50
2022-09-21T14:35:45.584Z,50.16
2022-09-21T14:36:52.737Z,50.82
2022-09-21T14:38:26.293Z,50.94
2022-09-21T14:39:39.454Z,50.93
2022-09-21T14:40:51.766Z,51.64
2022-09-21T14:41:59.498Z,52.29
2022-09-21T14:43:09.586Z,53.11
2022-09-21T14:44:21.388Z,52.77
2022-09-21T14:45:41.409Z,53.42
2022-09-21T14:47:12.729Z,54.42
2022-09-21T14:48:55.956Z,55.50
2022-09-21T14:50:21.387Z,56.60
2022-09-21T14:52:04.251Z,57.18
2022-09-21T14:53:39.133Z,58.81
2022-09-21T14:55:16.732Z,59.61
2022-09-21T14:56:44.062Z,60.27
2022-09-21T14:58:01.067Z,60.92
2022-09-21T14:59:26.163Z,61.88
2022-09-21T15:00:43.801Z,61.90
2022-09-21T15:02:03.456Z,62.48
2022-09-21T15:03:32.958Z,63.33
2022-09-21T15:05:07.131Z,63.78
2022-09-21T15:06:36.058Z,62.63
2022-09-21T15:08:05.829Z,58.19
2022-09-21T15:09:50.910Z,57.46
2022-09-21T15:11:27.076Z,58.08
2022-09-21T15:12:55.517Z,59.15